Liberty Promise — WWMZ — position and weather

sailwx.info

Track history (hours):
 
Tides and Currents Weather Stations Pressure Air Temp Water Temp Dewpoint Dewpoint Depression Visibility Wind Speed Wind Dir Waves Ship Positions

Liberty Promise

More information available from US FCC via Universal Licensing System and Coast Guard Vessel Documentation Center.

Last reported at 2014-Jul-24 19:28 UTC. Time now 2014-Jul-24 20:08 UTC.
Position N 35°40' E 025°40'.

Length 200 m; draft 9.8 m.

Type: Cargo ship. MMSI: 366102000.

Date/timePositionNaut miles runAvg speedWind from/ knotsBaromVisibWave heightAir tempDewpointWater temp
2014-Jul-24 19:28N 35°40' E 025°40'1616.1
2014-Jul-24 18:29N 35°44' E 025°21'1515.7
2014-Jul-24 17:33N 35°47' E 025°04'1615.7
2014-Jul-24 16:33N 35°50' E 024°45'1716.2
2014-Jul-24 15:30N 35°54' E 024°24'1516.0
2014-Jul-24 14:33N 35°56' E 024°06'  
2014-Jul-22 02:30N 37°08' E 004°21'3916.5
2014-Jul-22 00:07N 37°03' E 003°32'1416.8
2014-Jul-21 23:16N 37°01' E 003°14'1216.8
2014-Jul-21 22:32N 36°59' E 002°59'1717.1
2014-Jul-21 21:30N 36°56' E 002°37'1616.3
2014-Jul-21 20:33N 36°53' E 002°18'516.5
2014-Jul-21 20:15N 36°52' E 002°12'8016.9
2014-Jul-21 15:30N 36°38' E 000°34'28616.8
2014-Jul-20 22:32N 35°59' W 005°18'80216.5
2014-Jul-18 22:05N 37°07' W 021°52'4216.5
2014-Jul-18 19:31N 37°13' W 022°44'3516.4
2014-Jul-18 17:25N 37°18' W 023°28'1416.6
2014-Jul-18 16:33N 37°19' W 023°45'1717.2
2014-Jul-18 15:34N 37°22' W 024°07'1817.6
2014-Jul-18 14:33N 37°24' W 024°29'1717.1
2014-Jul-18 13:33N 37°26' W 024°50'1717.2
2014-Jul-18 12:33N 37°28' W 025°12'1817.7
2014-Jul-18 11:34N 37°30' W 025°34'1817.5
2014-Jul-18 10:33N 37°32' W 025°56'1817.5
2014-Jul-18 09:33N 37°34' W 026°18'1817.6
2014-Jul-18 08:34N 37°35' W 026°40'1817.7
2014-Jul-18 07:34N 37°38' W 027°02'1817.6
2014-Jul-18 06:34N 37°40' W 027°24'1817.9
2014-Jul-18 05:34N 37°40' W 027°47'1717.5
2014-Jul-18 04:34N 37°42' W 028°08'1817.5
2014-Jul-18 03:34N 37°44' W 028°31'1817.6
2014-Jul-18 02:34N 37°46' W 028°53'1817.7
2014-Jul-18 01:34N 37°47' W 029°15'1717.4
2014-Jul-18 00:34N 37°48' W 029°37'1817.6
2014-Jul-17 23:34N 37°49' W 029°59'2417.5
2014-Jul-17 22:11N 37°51' W 030°29'1117.8
2014-Jul-17 21:33N 37°52' W 030°44'1817.7
2014-Jul-17 20:33N 37°53' W 031°06'  
Track history (hours):
 
Tides and Currents Weather Stations Pressure Air Temp Water Temp Dewpoint Dewpoint Depression Visibility Wind Speed Wind Dir Waves Ship Positions

Liberty Promise

More information available from US FCC via Universal Licensing System and Coast Guard Vessel Documentation Center.

Last reported at 2014-Jul-24 19:28 UTC. Time now 2014-Jul-24 20:08 UTC.
Position N 35°40' E 025°40'.

Length 200 m; draft 9.8 m.

Type: Cargo ship. MMSI: 366102000.

Date/timePositionNaut miles runAvg speedWind from/ knotsBaromVisibWave heightAir tempDewpointWater temp
2014-Jul-24 19:28N 35°40' E 025°40'1616.1
2014-Jul-24 18:29N 35°44' E 025°21'1515.7
2014-Jul-24 17:33N 35°47' E 025°04'1615.7
2014-Jul-24 16:33N 35°50' E 024°45'1716.2
2014-Jul-24 15:30N 35°54' E 024°24'1516.0
2014-Jul-24 14:33N 35°56' E 024°06'  
2014-Jul-22 02:30N 37°08' E 004°21'3916.5
2014-Jul-22 00:07N 37°03' E 003°32'1416.8
2014-Jul-21 23:16N 37°01' E 003°14'1216.8
2014-Jul-21 22:32N 36°59' E 002°59'1717.1
2014-Jul-21 21:30N 36°56' E 002°37'1616.3
2014-Jul-21 20:33N 36°53' E 002°18'516.5
2014-Jul-21 20:15N 36°52' E 002°12'8016.9
2014-Jul-21 15:30N 36°38' E 000°34'28616.8
2014-Jul-20 22:32N 35°59' W 005°18'80216.5
2014-Jul-18 22:05N 37°07' W 021°52'4216.5
2014-Jul-18 19:31N 37°13' W 022°44'3516.4
2014-Jul-18 17:25N 37°18' W 023°28'1416.6
2014-Jul-18 16:33N 37°19' W 023°45'1717.2
2014-Jul-18 15:34N 37°22' W 024°07'1817.6
2014-Jul-18 14:33N 37°24' W 024°29'1717.1
2014-Jul-18 13:33N 37°26' W 024°50'1717.2
2014-Jul-18 12:33N 37°28' W 025°12'1817.7
2014-Jul-18 11:34N 37°30' W 025°34'1817.5
2014-Jul-18 10:33N 37°32' W 025°56'1817.5
2014-Jul-18 09:33N 37°34' W 026°18'1817.6
2014-Jul-18 08:34N 37°35' W 026°40'1817.7
2014-Jul-18 07:34N 37°38' W 027°02'1817.6
2014-Jul-18 06:34N 37°40' W 027°24'1817.9
2014-Jul-18 05:34N 37°40' W 027°47'1717.5
2014-Jul-18 04:34N 37°42' W 028°08'1817.5
2014-Jul-18 03:34N 37°44' W 028°31'1817.6
2014-Jul-18 02:34N 37°46' W 028°53'1817.7
2014-Jul-18 01:34N 37°47' W 029°15'1717.4
2014-Jul-18 00:34N 37°48' W 029°37'1817.6
2014-Jul-17 23:34N 37°49' W 029°59'2417.5
2014-Jul-17 22:11N 37°51' W 030°29'1117.8
2014-Jul-17 21:33N 37°52' W 030°44'1817.7
2014-Jul-17 20:33N 37°53' W 031°06'  

Dump ship's entire track history